Terminal Aerodrome Forecast
Issued by NWS Tallahassee, FL

Home | Current Version | Previous Version | Text Only | Print | Product List | Glossary On
Versions: 1 2 3 4 5 6 7 8 9 10 11 12 13 14 15 16 17 18 19 20 21 22 23 24 25
000
FTUS42 KTAE 021700
TAFTLH
TAF
KTLH 021740Z 0218/0318 00000KT P6SM FEW025 BKN250
     FM030000 00000KT P6SM SCT250
     FM030800 00000KT 5SM BR BKN100
     FM031000 00000KT 2SM BR OVC010
     FM031600 15006KT P6SM OVC012=

USA.gov is the U.S. government's official web portal to all federal, state and local government web resources and services.